Time,TemperatureF,DewpointF,PressureIn,WindDirection,WindDirectionDegrees,WindSpeedMPH,WindSpeedGustMPH,Humidity,HourlyPrecipIn,Conditions,Clouds,dailyrainin,SolarRadiationWatts/m^2,SoftwareType,DateUTC
2013-02-26 00:02:00,49.1,43.5,30.20,WSW,248,0.0,0.0,81,0.00,CLR,,0.00,0.0,WeatherDisplay:10.37,2013-02-26 08:02:00,
2013-02-26 00:07:00,48.9,43.0,30.19,WSW,248,0.0,0.0,80,0.00,CLR,,0.00,0.0,WeatherDisplay:10.37,2013-02-26 08:07:00,
2013-02-26 00:12:00,48.6,42.7,30.19,WSW,248,0.0,0.0,80,0.00,CLR,,0.00,0.0,WeatherDisplay:10.37,2013-02-26 08:12:00,
2013-02-26 00:17:00,48.7,42.8,30.19,WSW,248,0.0,0.0,80,0.00,CLR,,0.00,0.0,WeatherDisplay:10.37,2013-02-26 08:17:00,
2013-02-26 00:22:00,48.6,42.7,30.19,WSW,248,0.0,0.0,80,0.00,CLR,,0.00,0.0,WeatherDisplay:10.37,2013-02-26 08:22:00,
2013-02-26 00:27:00,48.4,42.5,30.19,WSW,248,0.0,0.0,80,0.00,CLR,,0.00,0.0,WeatherDisplay:10.37,2013-02-26 08:27:00,
2013-02-26 00:33:00,48.4,42.5,30.19,WSW,248,0.0,0.0,80,0.00,CLR,,0.00,0.0,WeatherDisplay:10.37,2013-02-26 08:33:00,
2013-02-26 00:38:00,48.2,42.3,30.19,WSW,248,0.0,0.0,80,0.00,CLR,,0.00,0.0,WeatherDisplay:10.37,2013-02-26 08:38:00,
2013-02-26 00:43:00,48.0,42.1,30.19,WSW,248,0.0,0.0,80,0.00,CLR,,0.00,0.0,WeatherDisplay:10.37,2013-02-26 08:43:00,
2013-02-26 00:48:00,47.8,42.0,30.19,WSW,248,0.0,0.0,80,0.00,CLR,,0.00,0.0,WeatherDisplay:10.37,2013-02-26 08:48:00,
2013-02-26 00:53:00,48.0,42.1,30.19,WSW,248,0.0,0.0,80,0.00,CLR,,0.00,0.0,WeatherDisplay:10.37,2013-02-26 08:53:00,
2013-02-26 00:58:00,47.8,42.0,30.19,WSW,248,0.0,0.0,80,0.00,CLR,,0.00,0.0,WeatherDisplay:10.37,2013-02-26 08:58:00,
2013-02-26 01:03:00,47.7,41.8,30.19,WSW,248,0.0,0.0,80,0.00,CLR,,0.00,0.0,WeatherDisplay:10.37,2013-02-26 09:03:00,
2013-02-26 01:08:00,47.1,41.3,30.19,WSW,248,0.0,0.0,80,0.00,CLR,,0.00,0.0,WeatherDisplay:10.37,2013-02-26 09:08:00,
2013-02-26 01:14:00,46.9,41.1,30.19,WSW,248,0.0,0.0,80,0.00,CLR,,0.00,0.0,WeatherDisplay:10.37,2013-02-26 09:14:00,
2013-02-26 01:19:00,46.9,41.1,30.19,WSW,248,0.0,0.0,80,0.00,CLR,,0.00,0.0,WeatherDisplay:10.37,2013-02-26 09:19:00,
2013-02-26 01:24:00,46.9,41.1,30.19,WSW,248,0.0,0.0,80,0.00,CLR,,0.00,0.0,WeatherDisplay:10.37,2013-02-26 09:24:00,
2013-02-26 01:29:00,46.8,40.9,30.19,WSW,248,0.0,0.0,80,0.00,CLR,,0.00,0.0,WeatherDisplay:10.37,2013-02-26 09:29:00,
2013-02-26 01:34:00,46.6,40.7,30.19,WSW,248,0.0,0.0,80,0.00,CLR,,0.00,0.0,WeatherDisplay:10.37,2013-02-26 09:34:00,
2013-02-26 01:39:00,46.4,40.6,30.19,WSW,248,0.0,0.0,80,0.00,CLR,,0.00,0.0,WeatherDisplay:10.37,2013-02-26 09:39:00,
2013-02-26 01:44:00,46.2,40.4,30.19,WSW,248,0.0,0.0,80,0.00,CLR,,0.00,0.0,WeatherDisplay:10.37,2013-02-26 09:44:00,
2013-02-26 01:49:00,45.9,40.0,30.18,WSW,248,0.0,0.0,80,0.00,CLR,,0.00,0.0,WeatherDisplay:10.37,2013-02-26 09:49:00,
2013-02-26 01:54:00,45.7,39.9,30.18,WSW,248,0.0,0.0,80,0.00,CLR,,0.00,0.0,WeatherDisplay:10.37,2013-02-26 09:54:00,
2013-02-26 01:59:00,45.5,39.7,30.18,WSW,248,0.0,0.0,80,0.00,CLR,,0.00,0.0,WeatherDisplay:10.37,2013-02-26 09:59:00,
2013-02-26 02:04:00,45.5,40.0,30.18,WSW,248,0.0,0.0,81,0.00,CLR,,0.00,0.0,WeatherDisplay:10.37,2013-02-26 10:04:00,
2013-02-26 02:09:00,45.1,39.7,30.17,WSW,248,0.0,0.0,81,0.00,CLR,,0.00,0.0,WeatherDisplay:10.37,2013-02-26 10:09:00,
2013-02-26 02:14:00,45.1,39.7,30.17,WSW,248,0.0,0.0,81,0.00,CLR,,0.00,0.0,WeatherDisplay:10.37,2013-02-26 10:14:00,
2013-02-26 02:20:00,45.1,40.0,30.17,WSW,248,0.0,0.0,82,0.00,CLR,,0.00,0.0,WeatherDisplay:10.37,2013-02-26 10:20:00,
2013-02-26 02:25:00,45.1,39.7,30.17,WSW,248,0.0,0.0,81,0.00,CLR,,0.00,0.0,WeatherDisplay:10.37,2013-02-26 10:25:00,
2013-02-26 02:30:00,45.0,39.5,30.17,WSW,248,0.0,0.0,81,0.00,CLR,,0.00,0.0,WeatherDisplay:10.37,2013-02-26 10:30:00,
2013-02-26 02:35:00,45.1,40.0,30.17,WSW,248,0.0,0.0,82,0.00,CLR,,0.00,0.0,WeatherDisplay:10.37,2013-02-26 10:35:00,
2013-02-26 02:41:00,45.0,39.8,30.17,WSW,248,0.0,0.0,82,0.00,CLR,,0.00,0.0,WeatherDisplay:10.37,2013-02-26 10:41:00,
2013-02-26 02:46:00,45.0,39.8,30.17,WSW,248,0.0,0.0,82,0.00,CLR,,0.00,0.0,WeatherDisplay:10.37,2013-02-26 10:46:00,
2013-02-26 02:51:00,44.8,39.6,30.17,WSW,248,0.0,0.0,82,0.00,CLR,,0.00,0.0,WeatherDisplay:10.37,2013-02-26 10:51:00,
2013-02-26 02:56:00,44.6,39.1,30.17,WSW,248,0.0,0.0,81,0.00,CLR,,0.00,0.0,WeatherDisplay:10.37,2013-02-26 10:56:00,
2013-02-26 03:01:00,44.2,39.1,30.17,WSW,248,0.0,0.0,82,0.00,CLR,,0.00,0.0,WeatherDisplay:10.37,2013-02-26 11:01:00,
2013-02-26 03:06:00,44.4,39.3,30.16,WSW,248,0.0,0.0,82,0.00,CLR,,0.00,0.0,WeatherDisplay:10.37,2013-02-26 11:06:00,
2013-02-26 03:11:00,44.4,39.3,30.16,WSW,248,0.0,0.0,82,0.00,CLR,,0.00,0.0,WeatherDisplay:10.37,2013-02-26 11:11:00,
2013-02-26 03:16:00,44.4,39.6,30.16,WSW,248,0.0,0.0,83,0.00,CLR,,0.00,0.0,WeatherDisplay:10.37,2013-02-26 11:16:00,
2013-02-26 03:21:00,44.4,39.6,30.16,WSW,248,0.0,0.0,83,0.00,CLR,,0.00,0.0,WeatherDisplay:10.37,2013-02-26 11:21:00,
2013-02-26 03:26:00,44.4,39.6,30.15,WSW,248,0.0,0.0,83,0.00,CLR,,0.00,0.0,WeatherDisplay:10.37,2013-02-26 11:26:00,
2013-02-26 03:31:00,44.4,39.6,30.15,WSW,248,0.0,0.0,83,0.00,CLR,,0.00,0.0,WeatherDisplay:10.37,2013-02-26 11:31:00,
2013-02-26 03:36:00,44.4,39.6,30.15,WSW,248,0.0,0.0,83,0.00,CLR,,0.00,0.0,WeatherDisplay:10.37,2013-02-26 11:36:00,
2013-02-26 03:41:00,44.2,39.4,30.15,WSW,248,0.0,0.0,83,0.00,CLR,,0.00,0.0,WeatherDisplay:10.37,2013-02-26 11:41:00,
2013-02-26 03:46:00,44.2,39.1,30.15,WSW,248,0.0,0.0,82,0.00,CLR,,0.00,0.0,WeatherDisplay:10.37,2013-02-26 11:46:00,
2013-02-26 03:52:00,44.1,38.9,30.15,WSW,248,0.0,0.0,82,0.00,CLR,,0.00,0.0,WeatherDisplay:10.37,2013-02-26 11:52:00,
2013-02-26 03:57:00,44.1,38.9,30.15,WSW,248,0.0,0.0,82,0.00,CLR,,0.00,0.0,WeatherDisplay:10.37,2013-02-26 11:57:00,
2013-02-26 04:03:00,44.2,39.1,30.15,WSW,248,0.0,0.0,82,0.00,CLR,,0.00,0.0,WeatherDisplay:10.37,2013-02-26 12:03:00,
2013-02-26 04:08:00,44.2,39.1,30.14,WSW,248,0.0,0.0,82,0.00,CLR,,0.00,0.0,WeatherDisplay:10.37,2013-02-26 12:08:00,
2013-02-26 04:13:00,44.2,39.1,30.14,WSW,248,0.0,0.0,82,0.00,CLR,,0.00,0.0,WeatherDisplay:10.37,2013-02-26 12:13:00,
2013-02-26 04:18:00,44.2,39.1,30.14,WSW,248,0.0,0.0,82,0.00,CLR,,0.00,0.0,WeatherDisplay:10.37,2013-02-26 12:18:00,
2013-02-26 04:23:00,44.4,39.3,30.14,WSW,248,0.0,0.0,82,0.00,CLR,,0.00,0.0,WeatherDisplay:10.37,2013-02-26 12:23:00,
2013-02-26 04:28:00,44.4,39.3,30.14,WSW,248,0.0,0.0,82,0.00,CLR,,0.00,0.0,WeatherDisplay:10.37,2013-02-26 12:28:00,
2013-02-26 04:33:00,44.4,39.0,30.14,WSW,248,0.0,0.0,81,0.00,CLR,,0.00,0.0,WeatherDisplay:10.37,2013-02-26 12:33:00,
2013-02-26 04:38:00,44.4,38.6,30.14,WSW,248,0.0,0.0,80,0.00,CLR,,0.00,0.0,WeatherDisplay:10.37,2013-02-26 12:38:00,
2013-02-26 04:44:00,44.4,38.6,30.14,WSW,248,0.0,0.0,80,0.00,CLR,,0.00,0.0,WeatherDisplay:10.37,2013-02-26 12:44:00,
2013-02-26 04:49:00,44.4,38.3,30.14,WSW,248,0.0,0.0,79,0.00,CLR,,0.00,0.0,WeatherDisplay:10.37,2013-02-26 12:49:00,
2013-02-26 04:54:00,44.4,38.6,30.14,WSW,248,0.0,0.0,80,0.00,CLR,,0.00,0.0,WeatherDisplay:10.37,2013-02-26 12:54:00,
2013-02-26 04:59:00,44.4,38.6,30.14,WSW,248,0.0,0.0,80,0.00,CLR,,0.00,0.0,WeatherDisplay:10.37,2013-02-26 12:59:00,
2013-02-26 05:04:00,44.2,38.5,30.14,WSW,248,0.0,0.0,80,0.00,CLR,,0.00,0.0,WeatherDisplay:10.37,2013-02-26 13:04:00,
2013-02-26 05:09:00,44.2,38.1,30.14,WSW,248,0.0,0.0,79,0.00,CLR,,0.00,0.0,WeatherDisplay:10.37,2013-02-26 13:09:00,
2013-02-26 05:15:00,44.1,38.0,30.14,WSW,248,0.0,0.0,79,0.00,CLR,,0.00,0.0,WeatherDisplay:10.37,2013-02-26 13:15:00,
2013-02-26 05:20:00,43.9,37.8,30.14,WSW,248,0.0,0.0,79,0.00,CLR,,0.00,0.0,WeatherDisplay:10.37,2013-02-26 13:20:00,
2013-02-26 05:25:00,43.7,37.6,30.14,WSW,248,0.0,0.0,79,0.00,CLR,,0.00,0.0,WeatherDisplay:10.37,2013-02-26 13:25:00,
2013-02-26 05:30:00,43.7,37.6,30.14,WSW,248,0.0,0.0,79,0.00,CLR,,0.00,0.0,WeatherDisplay:10.37,2013-02-26 13:30:00,
2013-02-26 05:35:00,43.7,37.6,30.14,WSW,248,0.0,0.0,79,0.00,CLR,,0.00,0.0,WeatherDisplay:10.37,2013-02-26 13:35:00,
2013-02-26 05:41:00,43.5,37.4,30.14,WSW,248,0.0,0.0,79,0.00,CLR,,0.00,0.0,WeatherDisplay:10.37,2013-02-26 13:41:00,
2013-02-26 05:46:00,43.5,37.4,30.14,WSW,248,0.0,0.0,79,0.00,CLR,,0.00,0.0,WeatherDisplay:10.37,2013-02-26 13:46:00,
2013-02-26 05:51:00,43.3,36.9,30.14,WSW,248,0.0,0.0,78,0.00,CLR,,0.00,0.0,WeatherDisplay:10.37,2013-02-26 13:51:00,
2013-02-26 05:56:00,43.3,36.9,30.14,WSW,248,0.0,0.0,78,0.00,CLR,,0.00,0.0,WeatherDisplay:10.37,2013-02-26 13:56:00,
2013-02-26 06:01:00,43.2,36.8,30.14,WSW,248,0.0,0.0,78,0.00,CLR,,0.00,0.0,WeatherDisplay:10.37,2013-02-26 14:01:00,
2013-02-26 06:06:00,43.3,36.9,30.15,WSW,248,0.0,0.0,78,0.00,CLR,,0.00,0.0,WeatherDisplay:10.37,2013-02-26 14:06:00,
2013-02-26 06:11:00,43.3,36.9,30.15,WSW,248,0.0,0.0,78,0.00,CLR,,0.00,0.0,WeatherDisplay:10.37,2013-02-26 14:11:00,
2013-02-26 06:17:00,42.8,36.4,30.15,WSW,248,0.0,0.0,78,0.00,OVC,,0.00,0.0,WeatherDisplay:10.37,2013-02-26 14:17:00,
2013-02-26 06:22:00,42.6,36.6,30.15,WSW,248,0.0,0.0,79,0.00,OVC,,0.00,0.0,WeatherDisplay:10.37,2013-02-26 14:22:00,
2013-02-26 06:27:00,42.4,36.7,30.15,WSW,248,0.0,0.0,80,0.00,OVC,,0.00,0.0,WeatherDisplay:10.37,2013-02-26 14:27:00,
2013-02-26 06:32:00,42.3,36.5,30.15,WSW,248,0.0,0.0,80,0.00,OVC,,0.00,0.0,WeatherDisplay:10.37,2013-02-26 14:32:00,
2013-02-26 06:37:00,42.1,36.4,30.15,WSW,248,0.0,0.0,80,0.00,OVC,,0.00,0.0,WeatherDisplay:10.37,2013-02-26 14:37:00,
2013-02-26 06:42:00,42.1,36.4,30.15,WSW,248,0.0,0.0,80,0.00,OVC,,0.00,0.0,WeatherDisplay:10.37,2013-02-26 14:42:00,
2013-02-26 06:47:00,41.9,36.2,30.16,WSW,248,0.0,0.0,80,0.00,OVC,,0.00,0.0,WeatherDisplay:10.37,2013-02-26 14:47:00,
2013-02-26 06:52:00,41.7,36.0,30.16,WSW,248,0.0,0.0,80,0.00,OVC,,0.00,0.0,WeatherDisplay:10.37,2013-02-26 14:52:00,
2013-02-26 06:58:00,41.9,36.5,30.16,WSW,248,0.0,0.0,81,0.00,OVC,,0.00,0.0,WeatherDisplay:10.37,2013-02-26 14:58:00,
2013-02-26 07:03:00,41.9,36.5,30.16,WSW,248,0.0,0.0,81,0.00,OVC,,0.00,0.0,WeatherDisplay:10.37,2013-02-26 15:03:00,
2013-02-26 07:08:00,42.1,36.7,30.16,WSW,248,0.0,0.0,81,0.00,OVC,,0.00,0.0,WeatherDisplay:10.37,2013-02-26 15:08:00,
2013-02-26 07:13:00,42.1,36.7,30.16,WSW,248,0.0,0.0,81,0.00,OVC,,0.00,0.0,WeatherDisplay:10.37,2013-02-26 15:13:00,
2013-02-26 07:18:00,42.1,36.7,30.16,WSW,248,0.0,0.0,81,0.00,OVC,,0.00,0.0,WeatherDisplay:10.37,2013-02-26 15:18:00,
2013-02-26 07:23:00,42.1,36.7,30.16,WSW,248,0.0,0.0,81,0.00,OVC,,0.00,0.0,WeatherDisplay:10.37,2013-02-26 15:23:00,
2013-02-26 07:28:00,42.6,37.2,30.16,WSW,248,0.0,0.0,81,0.00,OVC,,0.00,0.0,WeatherDisplay:10.37,2013-02-26 15:28:00,
2013-02-26 07:33:00,43.0,37.9,30.16,WSW,248,0.0,0.0,82,0.00,OVC,,0.00,0.0,WeatherDisplay:10.37,2013-02-26 15:33:00,
2013-02-26 07:39:00,43.0,37.9,30.16,WSW,248,0.0,0.0,82,0.00,OVC,,0.00,0.0,WeatherDisplay:10.37,2013-02-26 15:39:00,
2013-02-26 07:44:00,43.3,38.2,30.16,WSW,248,0.0,0.0,82,0.00,OVC,,0.00,0.0,WeatherDisplay:10.37,2013-02-26 15:44:00,
2013-02-26 07:49:00,43.5,38.4,30.17,WSW,248,0.0,0.0,82,0.00,OVC,,0.00,0.0,WeatherDisplay:10.37,2013-02-26 15:49:00,
2013-02-26 07:54:00,43.5,38.4,30.17,WSW,248,0.0,0.0,82,0.00,OVC,,0.00,0.0,WeatherDisplay:10.37,2013-02-26 15:54:00,
2013-02-26 07:59:00,44.1,38.9,30.17,WSW,248,0.0,0.0,82,0.00,OVC,,0.00,0.0,WeatherDisplay:10.37,2013-02-26 15:59:00,
2013-02-26 08:04:00,44.4,39.6,30.17,WSW,248,0.0,0.0,83,0.00,OVC,,0.00,0.0,WeatherDisplay:10.37,2013-02-26 16:04:00,
2013-02-26 08:09:00,44.8,39.9,30.17,WSW,248,0.0,0.0,83,0.00,OVC,,0.00,0.0,WeatherDisplay:10.37,2013-02-26 16:09:00,
2013-02-26 08:14:00,45.0,40.1,30.17,WSW,248,0.0,0.0,83,0.00,OVC,,0.00,0.0,WeatherDisplay:10.37,2013-02-26 16:14:00,
2013-02-26 08:19:00,45.1,40.3,30.17,WSW,248,0.0,0.0,83,0.00,OVC,,0.00,0.0,WeatherDisplay:10.37,2013-02-26 16:19:00,
2013-02-26 08:25:00,45.5,40.6,30.17,WSW,248,0.0,0.0,83,0.00,OVC,,0.00,0.0,WeatherDisplay:10.37,2013-02-26 16:25:00,
2013-02-26 08:30:00,45.7,40.8,30.17,WSW,248,0.0,0.0,83,0.00,OVC,,0.00,0.0,WeatherDisplay:10.37,2013-02-26 16:30:00,
2013-02-26 08:35:00,46.0,41.5,30.17,WSW,248,0.0,0.0,84,0.00,OVC,,0.00,0.0,WeatherDisplay:10.37,2013-02-26 16:35:00,
2013-02-26 08:40:00,46.4,41.8,30.17,WSW,248,0.0,0.0,84,0.00,OVC,,0.00,0.0,WeatherDisplay:10.37,2013-02-26 16:40:00,
2013-02-26 08:45:00,46.6,42.0,30.17,WSW,248,0.0,0.0,84,0.00,OVC,,0.00,0.0,WeatherDisplay:10.37,2013-02-26 16:45:00,
2013-02-26 08:50:00,46.9,42.4,30.17,WSW,248,0.0,0.0,84,0.00,OVC,,0.00,0.0,WeatherDisplay:10.37,2013-02-26 16:50:00,
2013-02-26 08:56:00,47.1,42.5,30.17,WSW,248,0.0,0.0,84,0.00,OVC,,0.00,0.0,WeatherDisplay:10.37,2013-02-26 16:56:00,
2013-02-26 09:01:00,47.3,43.0,30.17,WSW,248,0.0,0.0,85,0.00,OVC,,0.00,0.0,WeatherDisplay:10.37,2013-02-26 17:01:00,
2013-02-26 09:06:00,47.3,43.0,30.17,WSW,248,0.0,0.0,85,0.00,OVC,,0.00,0.0,WeatherDisplay:10.37,2013-02-26 17:06:00,
2013-02-26 09:11:00,47.7,43.1,30.18,WSW,248,0.0,0.0,84,0.00,OVC,,0.00,0.0,WeatherDisplay:10.37,2013-02-26 17:11:00,
2013-02-26 09:16:00,48.4,43.8,30.18,WSW,248,0.0,0.0,84,0.00,OVC,,0.00,0.0,WeatherDisplay:10.37,2013-02-26 17:16:00,
2013-02-26 09:21:00,48.7,44.4,30.18,WSW,248,0.0,0.0,85,0.00,OVC,,0.00,0.0,WeatherDisplay:10.37,2013-02-26 17:21:00,
2013-02-26 09:26:00,49.3,44.6,30.18,WSW,248,0.0,0.0,84,0.00,OVC,,0.00,0.0,WeatherDisplay:10.37,2013-02-26 17:26:00,
2013-02-26 09:31:00,49.8,45.2,30.18,WSW,248,0.0,0.0,84,0.00,OVC,,0.00,0.0,WeatherDisplay:10.37,2013-02-26 17:31:00,
2013-02-26 09:36:00,50.5,45.6,30.18,WSW,248,0.0,0.0,83,0.00,OVC,,0.00,0.0,WeatherDisplay:10.37,2013-02-26 17:36:00,
2013-02-26 09:41:00,50.9,45.9,30.18,WSW,248,0.0,0.0,83,0.00,OVC,,0.00,0.0,WeatherDisplay:10.37,2013-02-26 17:41:00,
2013-02-26 09:46:00,51.3,45.6,30.18,WSW,248,0.0,0.0,81,0.00,OVC,,0.00,0.0,WeatherDisplay:10.37,2013-02-26 17:46:00,
2013-02-26 09:51:00,51.6,46.0,30.18,WSW,248,0.0,0.0,81,0.00,OVC,,0.00,0.0,WeatherDisplay:10.37,2013-02-26 17:51:00,
2013-02-26 09:56:00,52.0,45.7,30.18,WSW,248,0.0,0.0,79,0.00,OVC,,0.00,0.0,WeatherDisplay:10.37,2013-02-26 17:56:00,
2013-02-26 10:02:00,52.2,45.5,30.18,WSW,248,0.0,0.0,78,0.00,OVC,,0.00,0.0,WeatherDisplay:10.37,2013-02-26 18:02:00,
2013-02-26 10:07:00,52.5,45.9,30.19,WSW,248,0.0,0.0,78,0.00,OVC,,0.00,0.0,WeatherDisplay:10.37,2013-02-26 18:07:00,
2013-02-26 10:12:00,53.2,46.6,30.19,WSW,248,0.0,0.0,78,0.00,OVC,,0.00,0.0,WeatherDisplay:10.37,2013-02-26 18:12:00,
2013-02-26 10:17:00,53.4,46.0,30.19,WSW,248,0.0,0.0,76,0.00,OVC,,0.00,0.0,WeatherDisplay:10.37,2013-02-26 18:17:00,
2013-02-26 10:22:00,53.8,46.7,30.19,WSW,248,0.0,0.0,77,0.00,OVC,,0.00,0.0,WeatherDisplay:10.37,2013-02-26 18:22:00,
2013-02-26 10:27:00,53.8,46.7,30.19,WSW,248,0.0,0.0,77,0.00,OVC,,0.00,0.0,WeatherDisplay:10.37,2013-02-26 18:27:00,
2013-02-26 10:33:00,54.3,46.6,30.19,WSW,248,0.0,0.0,75,0.00,OVC,,0.00,0.0,WeatherDisplay:10.37,2013-02-26 18:33:00,
2013-02-26 10:38:00,54.5,46.0,30.19,WSW,248,0.0,0.0,73,0.00,OVC,,0.00,0.0,WeatherDisplay:10.37,2013-02-26 18:38:00,
2013-02-26 10:43:00,54.9,46.0,30.19,WSW,248,0.0,0.0,72,0.00,OVC,,0.00,0.0,WeatherDisplay:10.37,2013-02-26 18:43:00,
2013-02-26 10:48:00,54.9,46.0,30.18,WSW,248,0.0,0.0,72,0.00,OVC,,0.00,0.0,WeatherDisplay:10.37,2013-02-26 18:48:00,
2013-02-26 10:53:00,54.9,46.4,30.18,WSW,248,0.0,0.0,73,0.00,OVC,,0.00,0.0,WeatherDisplay:10.37,2013-02-26 18:53:00,
2013-02-26 10:58:00,55.6,47.1,30.18,WSW,248,0.0,0.0,73,0.00,OVC,,0.00,0.0,WeatherDisplay:10.37,2013-02-26 18:58:00,
2013-02-26 11:04:00,55.6,47.1,30.18,WSW,248,0.0,0.0,73,0.00,OVC,,0.00,0.0,WeatherDisplay:10.37,2013-02-26 19:04:00,
2013-02-26 11:09:00,55.2,46.3,30.18,WSW,248,0.0,0.0,72,0.00,OVC,,0.00,0.0,WeatherDisplay:10.37,2013-02-26 19:09:00,
2013-02-26 11:14:00,55.2,46.0,30.18,WSW,248,0.0,0.0,71,0.00,OVC,,0.00,0.0,WeatherDisplay:10.37,2013-02-26 19:14:00,
2013-02-26 11:19:00,55.6,47.1,30.18,WSW,248,0.0,0.0,73,0.00,OVC,,0.00,0.0,WeatherDisplay:10.37,2013-02-26 19:19:00,
2013-02-26 11:24:00,55.9,46.3,30.18,WSW,248,0.0,0.0,70,0.00,OVC,,0.00,0.0,WeatherDisplay:10.37,2013-02-26 19:24:00,
2013-02-26 11:29:00,55.9,46.7,30.17,WSW,248,0.0,0.0,71,0.00,OVC,,0.00,0.0,WeatherDisplay:10.37,2013-02-26 19:29:00,
2013-02-26 11:34:00,56.3,47.0,30.17,WSW,248,0.0,0.0,71,0.00,OVC,,0.00,0.0,WeatherDisplay:10.37,2013-02-26 19:34:00,
2013-02-26 11:39:00,57.0,47.7,30.17,WSW,248,0.0,0.0,71,0.00,OVC,,0.00,0.0,WeatherDisplay:10.37,2013-02-26 19:39:00,
2013-02-26 11:45:00,57.0,46.6,30.17,WSW,248,0.0,0.0,68,0.00,OVC,,0.00,0.0,WeatherDisplay:10.37,2013-02-26 19:45:00,
2013-02-26 11:50:00,56.8,46.4,30.17,WSW,248,0.0,0.0,68,0.00,OVC,,0.00,0.0,WeatherDisplay:10.37,2013-02-26 19:50:00,
2013-02-26 11:55:00,56.5,46.0,30.17,WSW,248,0.0,0.0,68,0.00,OVC,,0.00,0.0,WeatherDisplay:10.37,2013-02-26 19:55:00,
2013-02-26 12:00:00,57.2,46.7,30.17,WSW,248,0.0,0.0,68,0.00,OVC,,0.00,0.0,WeatherDisplay:10.37,2013-02-26 20:00:00,
2013-02-26 12:06:00,57.2,46.7,30.17,WSW,248,0.0,0.0,68,0.00,OVC,,0.00,0.0,WeatherDisplay:10.37,2013-02-26 20:06:00,
2013-02-26 12:11:00,57.2,46.7,30.17,WSW,248,0.0,0.0,68,0.00,OVC,,0.00,0.0,WeatherDisplay:10.37,2013-02-26 20:11:00,
2013-02-26 12:16:00,57.7,45.2,30.17,WSW,248,0.0,0.0,63,0.00,OVC,,0.00,0.0,WeatherDisplay:10.37,2013-02-26 20:16:00,
2013-02-26 12:21:00,57.9,45.0,30.17,WSW,248,0.0,0.0,62,0.00,OVC,,0.00,0.0,WeatherDisplay:10.37,2013-02-26 20:21:00,
2013-02-26 12:26:00,57.9,45.0,30.16,WSW,248,0.0,0.0,62,0.00,OVC,,0.00,0.0,WeatherDisplay:10.37,2013-02-26 20:26:00,
2013-02-26 12:31:00,58.1,45.1,30.16,WSW,248,0.0,0.0,62,0.00,OVC,,0.00,0.0,WeatherDisplay:10.37,2013-02-26 20:31:00,
2013-02-26 12:36:00,58.1,44.7,30.16,WSW,248,0.0,0.0,61,0.00,OVC,,0.00,0.0,WeatherDisplay:10.37,2013-02-26 20:36:00,
2013-02-26 12:41:00,58.5,44.6,30.16,WSW,248,0.0,0.0,60,0.00,OVC,,0.00,0.0,WeatherDisplay:10.37,2013-02-26 20:41:00,
2013-02-26 12:46:00,59.2,45.7,30.15,WSW,248,0.0,0.0,61,0.00,OVC,,0.00,0.0,WeatherDisplay:10.37,2013-02-26 20:46:00,
2013-02-26 12:51:00,59.0,46.0,30.15,WSW,248,0.0,0.0,62,0.00,OVC,,0.00,0.0,WeatherDisplay:10.37,2013-02-26 20:51:00,
2013-02-26 12:57:00,59.2,46.2,30.15,WSW,248,0.0,0.0,62,0.00,OVC,,0.00,0.0,WeatherDisplay:10.37,2013-02-26 20:57:00,
2013-02-26 13:02:00,59.0,46.0,30.15,WSW,248,0.0,0.0,62,0.00,OVC,,0.00,0.0,WeatherDisplay:10.37,2013-02-26 21:02:00,
2013-02-26 13:07:00,59.2,46.6,30.14,WSW,248,0.0,0.0,63,0.00,OVC,,0.00,0.0,WeatherDisplay:10.37,2013-02-26 21:07:00,
2013-02-26 13:12:00,59.5,47.8,30.14,WSW,248,0.0,0.0,65,0.00,OVC,,0.00,0.0,WeatherDisplay:10.37,2013-02-26 21:12:00,
2013-02-26 13:17:00,59.9,48.1,30.14,WSW,248,0.0,0.0,65,0.00,OVC,,0.00,0.0,WeatherDisplay:10.37,2013-02-26 21:17:00,
2013-02-26 13:22:00,60.1,48.3,30.14,WSW,248,0.0,0.0,65,0.00,OVC,,0.00,0.0,WeatherDisplay:10.37,2013-02-26 21:22:00,
2013-02-26 13:28:00,60.6,48.4,30.14,WSW,248,0.0,0.0,64,0.00,OVC,,0.00,0.0,WeatherDisplay:10.37,2013-02-26 21:28:00,
2013-02-26 13:33:00,60.1,47.9,30.14,WSW,248,0.0,0.0,64,0.00,OVC,,0.00,0.0,WeatherDisplay:10.37,2013-02-26 21:33:00,
2013-02-26 13:38:00,60.4,48.2,30.14,WSW,248,0.0,0.0,64,0.00,OVC,,0.00,0.0,WeatherDisplay:10.37,2013-02-26 21:38:00,
2013-02-26 13:43:00,60.6,48.4,30.14,WSW,248,0.0,0.0,64,0.00,OVC,,0.00,0.0,WeatherDisplay:10.37,2013-02-26 21:43:00,
2013-02-26 13:48:00,60.1,48.7,30.12,WSW,248,0.0,0.0,66,0.00,OVC,,0.00,0.0,WeatherDisplay:10.37,2013-02-26 21:48:00,
2013-02-26 13:53:00,60.3,49.3,30.12,WSW,248,0.0,0.0,67,0.00,OVC,,0.00,0.0,WeatherDisplay:10.37,2013-02-26 21:53:00,
2013-02-26 13:58:00,60.4,49.0,30.12,WSW,248,0.0,0.0,66,0.00,OVC,,0.00,0.0,WeatherDisplay:10.37,2013-02-26 21:58:00,
2013-02-26 14:03:00,60.4,49.0,30.12,WSW,248,0.0,0.0,66,0.00,OVC,,0.00,0.0,WeatherDisplay:10.37,2013-02-26 22:03:00,
2013-02-26 14:09:00,60.8,49.4,30.12,WSW,248,0.0,0.0,66,0.00,OVC,,0.00,0.0,WeatherDisplay:10.37,2013-02-26 22:09:00,
2013-02-26 14:14:00,60.8,49.8,30.12,WSW,248,0.0,0.0,67,0.00,OVC,,0.00,0.0,WeatherDisplay:10.37,2013-02-26 22:14:00,
2013-02-26 14:19:00,60.4,49.4,30.12,WSW,248,0.0,0.0,67,0.00,OVC,,0.00,0.0,WeatherDisplay:10.37,2013-02-26 22:19:00,
2013-02-26 14:24:00,60.3,49.3,30.12,WSW,248,0.0,0.0,67,0.00,OVC,,0.00,0.0,WeatherDisplay:10.37,2013-02-26 22:24:00,
2013-02-26 14:29:00,60.3,49.3,30.12,WSW,248,0.0,0.0,67,0.00,OVC,,0.00,0.0,WeatherDisplay:10.37,2013-02-26 22:29:00,
2013-02-26 14:34:00,60.3,49.3,30.12,WSW,248,0.0,0.0,67,0.00,OVC,,0.00,0.0,WeatherDisplay:10.37,2013-02-26 22:34:00,
2013-02-26 14:40:00,60.6,49.6,30.12,WSW,248,0.0,0.0,67,0.00,OVC,,0.00,0.0,WeatherDisplay:10.37,2013-02-26 22:40:00,
2013-02-26 14:45:00,60.6,49.6,30.12,WSW,248,0.0,0.0,67,0.00,OVC,,0.00,0.0,WeatherDisplay:10.37,2013-02-26 22:45:00,
2013-02-26 14:50:00,60.8,49.8,30.11,WSW,248,0.0,0.0,67,0.00,OVC,,0.00,0.0,WeatherDisplay:10.37,2013-02-26 22:50:00,
2013-02-26 14:55:00,60.8,49.4,30.11,WSW,248,0.0,0.0,66,0.00,OVC,,0.00,0.0,WeatherDisplay:10.37,2013-02-26 22:55:00,
2013-02-26 15:01:00,60.4,48.6,30.11,WSW,248,0.0,0.0,65,0.00,OVC,,0.00,0.0,WeatherDisplay:10.37,2013-02-26 23:01:00,
2013-02-26 15:06:00,60.8,48.5,30.11,WSW,248,0.0,0.0,64,0.00,OVC,,0.00,0.0,WeatherDisplay:10.37,2013-02-26 23:06:00,
2013-02-26 15:11:00,60.6,48.4,30.11,WSW,248,0.0,0.0,64,0.00,OVC,,0.00,0.0,WeatherDisplay:10.37,2013-02-26 23:11:00,
2013-02-26 15:16:00,60.4,48.2,30.11,WSW,248,0.0,0.0,64,0.00,OVC,,0.00,0.0,WeatherDisplay:10.37,2013-02-26 23:16:00,
2013-02-26 15:21:00,60.4,48.6,30.11,WSW,248,0.0,0.0,65,0.00,OVC,,0.00,0.0,WeatherDisplay:10.37,2013-02-26 23:21:00,
2013-02-26 15:27:00,60.3,48.4,30.11,WSW,248,0.0,0.0,65,0.00,OVC,,0.00,0.0,WeatherDisplay:10.37,2013-02-26 23:27:00,
2013-02-26 15:32:00,60.1,48.3,30.11,WSW,248,0.0,0.0,65,0.00,OVC,,0.00,0.0,WeatherDisplay:10.37,2013-02-26 23:32:00,
2013-02-26 15:37:00,59.9,48.5,30.11,WSW,248,0.0,0.0,66,0.00,OVC,,0.00,0.0,WeatherDisplay:10.37,2013-02-26 23:37:00,
2013-02-26 15:42:00,60.1,48.3,30.11,WSW,248,0.0,0.0,65,0.00,OVC,,0.00,0.0,WeatherDisplay:10.37,2013-02-26 23:42:00,
2013-02-26 15:47:00,59.9,48.1,30.11,WSW,248,0.0,0.0,65,0.00,OVC,,0.00,0.0,WeatherDisplay:10.37,2013-02-26 23:47:00,
2013-02-26 15:53:00,60.1,48.7,30.11,WSW,248,0.0,0.0,66,0.00,OVC,,0.00,0.0,WeatherDisplay:10.37,2013-02-26 23:53:00,
2013-02-26 15:58:00,60.1,48.7,30.11,WSW,248,0.0,0.0,66,0.00,OVC,,0.00,0.0,WeatherDisplay:10.37,2013-02-26 23:58:00,
2013-02-26 16:03:00,59.7,48.3,30.11,WSW,248,0.0,0.0,66,0.00,OVC,,0.00,0.0,WeatherDisplay:10.37,2013-02-27 00:03:00,
2013-02-26 16:08:00,59.9,49.3,30.11,WSW,248,0.0,0.0,68,0.00,OVC,,0.00,0.0,WeatherDisplay:10.37,2013-02-27 00:08:00,
2013-02-26 16:13:00,59.9,49.3,30.11,WSW,248,0.0,0.0,68,0.00,OVC,,0.00,0.0,WeatherDisplay:10.37,2013-02-27 00:13:00,
2013-02-26 16:18:00,59.9,49.3,30.11,WSW,248,0.0,0.0,68,0.00,OVC,,0.00,0.0,WeatherDisplay:10.37,2013-02-27 00:18:00,
2013-02-26 16:23:00,59.7,49.1,30.11,WSW,248,0.0,0.0,68,0.00,OVC,,0.00,0.0,WeatherDisplay:10.37,2013-02-27 00:23:00,
2013-02-26 16:28:00,59.5,49.0,30.11,WSW,248,0.0,0.0,68,0.00,OVC,,0.00,0.0,WeatherDisplay:10.37,2013-02-27 00:28:00,
2013-02-26 16:33:00,59.5,49.0,30.11,WSW,248,0.0,0.0,68,0.00,OVC,,0.00,0.0,WeatherDisplay:10.37,2013-02-27 00:33:00,
2013-02-26 16:38:00,59.2,49.0,30.11,WSW,248,0.0,0.0,69,0.00,OVC,,0.00,0.0,WeatherDisplay:10.37,2013-02-27 00:38:00,
2013-02-26 16:44:00,59.0,48.8,30.11,WSW,248,0.0,0.0,69,0.00,OVC,,0.00,0.0,WeatherDisplay:10.37,2013-02-27 00:44:00,
2013-02-26 16:49:00,59.2,48.6,30.11,WSW,248,0.0,0.0,68,0.00,OVC,,0.00,0.0,WeatherDisplay:10.37,2013-02-27 00:49:00,
2013-02-26 16:54:00,59.4,49.2,30.11,WSW,248,0.0,0.0,69,0.00,OVC,,0.00,0.0,WeatherDisplay:10.37,2013-02-27 00:54:00,
2013-02-26 16:59:00,59.2,49.0,30.11,WSW,248,0.0,0.0,69,0.00,OVC,,0.00,0.0,WeatherDisplay:10.37,2013-02-27 00:59:00,
2013-02-26 17:04:00,59.2,49.0,30.11,WSW,248,0.0,0.0,69,0.00,OVC,,0.00,0.0,WeatherDisplay:10.37,2013-02-27 01:04:00,
2013-02-26 17:10:00,58.8,49.1,30.11,WSW,248,0.0,0.0,70,0.00,OVC,,0.00,0.0,WeatherDisplay:10.37,2013-02-27 01:10:00,
2013-02-26 17:15:00,58.6,48.9,30.11,WSW,248,0.0,0.0,70,0.00,OVC,,0.00,0.0,WeatherDisplay:10.37,2013-02-27 01:15:00,
2013-02-26 17:20:00,58.6,48.9,30.11,WSW,248,0.0,0.0,70,0.00,OVC,,0.00,0.0,WeatherDisplay:10.37,2013-02-27 01:20:00,
2013-02-26 17:25:00,58.6,48.9,30.11,WSW,248,0.0,0.0,70,0.00,OVC,,0.00,0.0,WeatherDisplay:10.37,2013-02-27 01:25:00,
2013-02-26 17:31:00,58.5,49.1,30.12,WSW,248,0.0,0.0,71,0.00,OVC,,0.00,0.0,WeatherDisplay:10.37,2013-02-27 01:31:00,
2013-02-26 17:36:00,58.5,49.1,30.12,WSW,248,0.0,0.0,71,0.00,OVC,,0.00,0.0,WeatherDisplay:10.37,2013-02-27 01:36:00,
2013-02-26 17:41:00,58.1,49.1,30.12,WSW,248,0.0,0.0,72,0.00,OVC,,0.00,0.0,WeatherDisplay:10.37,2013-02-27 01:41:00,
2013-02-26 17:46:00,57.9,48.6,30.12,WSW,248,0.0,0.0,71,0.00,OVC,,0.00,0.0,WeatherDisplay:10.37,2013-02-27 01:46:00,
2013-02-26 17:51:00,57.7,48.4,30.13,WSW,248,0.0,0.0,71,0.00,OVC,,0.00,0.0,WeatherDisplay:10.37,2013-02-27 01:51:00,
2013-02-26 17:56:00,57.4,48.1,30.13,WSW,248,0.0,0.0,71,0.00,OVC,,0.00,0.0,WeatherDisplay:10.37,2013-02-27 01:56:00,
2013-02-26 18:02:00,57.2,47.9,30.13,WSW,248,0.0,0.0,71,0.00,CLR,,0.00,0.0,WeatherDisplay:10.37,2013-02-27 02:02:00,
2013-02-26 18:07:00,56.8,47.9,30.12,WSW,248,0.0,0.0,72,0.00,CLR,,0.00,0.0,WeatherDisplay:10.37,2013-02-27 02:07:00,
2013-02-26 18:12:00,56.7,48.1,30.12,WSW,248,0.0,0.0,73,0.00,CLR,,0.00,0.0,WeatherDisplay:10.37,2013-02-27 02:12:00,
2013-02-26 18:17:00,56.3,47.8,30.12,WSW,248,0.0,0.0,73,0.00,CLR,,0.00,0.0,WeatherDisplay:10.37,2013-02-27 02:17:00,
2013-02-26 18:22:00,55.9,47.8,30.12,WSW,248,0.0,0.0,74,0.00,CLR,,0.00,0.0,WeatherDisplay:10.37,2013-02-27 02:22:00,
2013-02-26 18:28:00,55.8,48.0,30.13,WSW,248,0.0,0.0,75,0.00,CLR,,0.00,0.0,WeatherDisplay:10.37,2013-02-27 02:28:00,
2013-02-26 18:33:00,55.6,47.8,30.13,WSW,248,0.0,0.0,75,0.00,CLR,,0.00,0.0,WeatherDisplay:10.37,2013-02-27 02:33:00,
2013-02-26 18:38:00,55.6,48.1,30.13,WSW,248,0.0,0.0,76,0.00,CLR,,0.00,0.0,WeatherDisplay:10.37,2013-02-27 02:38:00,
2013-02-26 18:43:00,55.2,47.4,30.13,WSW,248,0.0,0.0,75,0.00,CLR,,0.00,0.0,WeatherDisplay:10.37,2013-02-27 02:43:00,
2013-02-26 18:48:00,55.2,47.8,30.14,WSW,248,0.0,0.0,76,0.00,CLR,,0.00,0.0,WeatherDisplay:10.37,2013-02-27 02:48:00,
2013-02-26 18:54:00,54.9,47.4,30.14,WSW,248,0.0,0.0,76,0.00,CLR,,0.00,0.0,WeatherDisplay:10.37,2013-02-27 02:54:00,
2013-02-26 18:59:00,54.5,47.4,30.14,WSW,248,0.0,0.0,77,0.00,CLR,,0.00,0.0,WeatherDisplay:10.37,2013-02-27 02:59:00,
2013-02-26 19:04:00,54.5,47.4,30.14,WSW,248,0.0,0.0,77,0.00,CLR,,0.00,0.0,WeatherDisplay:10.37,2013-02-27 03:04:00,
2013-02-26 19:09:00,54.3,47.3,30.15,WSW,248,0.0,0.0,77,0.00,CLR,,0.00,0.0,WeatherDisplay:10.37,2013-02-27 03:09:00,
2013-02-26 19:15:00,54.1,47.1,30.15,WSW,248,0.0,0.0,77,0.00,CLR,,0.00,0.0,WeatherDisplay:10.37,2013-02-27 03:15:00,
2013-02-26 19:20:00,54.0,46.9,30.15,WSW,248,0.0,0.0,77,0.00,CLR,,0.00,0.0,WeatherDisplay:10.37,2013-02-27 03:20:00,
2013-02-26 19:25:00,54.1,47.1,30.15,WSW,248,0.0,0.0,77,0.00,CLR,,0.00,0.0,WeatherDisplay:10.37,2013-02-27 03:25:00,
2013-02-26 19:30:00,54.0,45.5,30.16,WSW,248,0.0,0.0,73,0.00,CLR,,0.00,0.0,WeatherDisplay:10.37,2013-02-27 03:30:00,
2013-02-26 19:35:00,53.8,45.0,30.16,WSW,248,0.0,0.0,72,0.00,CLR,,0.00,0.0,WeatherDisplay:10.37,2013-02-27 03:35:00,
2013-02-26 19:40:00,53.6,44.0,30.16,WSW,248,0.0,0.0,70,0.00,CLR,,0.00,0.0,WeatherDisplay:10.37,2013-02-27 03:40:00,
2013-02-26 19:45:00,53.4,44.2,30.16,WSW,248,0.0,0.0,71,0.00,CLR,,0.00,0.0,WeatherDisplay:10.37,2013-02-27 03:45:00,
2013-02-26 19:51:00,53.4,44.6,30.16,WSW,248,0.0,0.0,72,0.00,CLR,,0.00,0.0,WeatherDisplay:10.37,2013-02-27 03:51:00,
2013-02-26 19:56:00,53.4,45.7,30.16,WSW,248,0.0,0.0,75,0.00,CLR,,0.00,0.0,WeatherDisplay:10.37,2013-02-27 03:56:00,
2013-02-26 20:01:00,53.4,45.7,30.16,WSW,248,0.0,0.0,75,0.00,CLR,,0.00,0.0,WeatherDisplay:10.37,2013-02-27 04:01:00,
2013-02-26 20:06:00,53.1,45.7,30.17,WSW,248,0.0,0.0,76,0.00,CLR,,0.00,0.0,WeatherDisplay:10.37,2013-02-27 04:06:00,
2013-02-26 20:12:00,52.9,45.5,30.17,WSW,248,0.0,0.0,76,0.00,CLR,,0.00,0.0,WeatherDisplay:10.37,2013-02-27 04:12:00,
2013-02-26 20:17:00,52.9,45.9,30.17,WSW,248,0.0,0.0,77,0.00,CLR,,0.00,0.0,WeatherDisplay:10.37,2013-02-27 04:17:00,
2013-02-26 20:22:00,52.7,45.7,30.17,WSW,248,0.0,0.0,77,0.00,CLR,,0.00,0.0,WeatherDisplay:10.37,2013-02-27 04:22:00,
2013-02-26 20:27:00,52.7,46.0,30.16,WSW,248,0.0,0.0,78,0.00,CLR,,0.00,0.0,WeatherDisplay:10.37,2013-02-27 04:27:00,
2013-02-26 20:32:00,52.5,45.9,30.16,WSW,248,0.0,0.0,78,0.00,CLR,,0.00,0.0,WeatherDisplay:10.37,2013-02-27 04:32:00,
2013-02-26 20:38:00,52.3,45.7,30.16,WSW,248,0.0,0.0,78,0.00,CLR,,0.00,0.0,WeatherDisplay:10.37,2013-02-27 04:38:00,
2013-02-26 20:43:00,52.2,45.5,30.16,WSW,248,0.0,0.0,78,0.00,CLR,,0.00,0.0,WeatherDisplay:10.37,2013-02-27 04:43:00,
2013-02-26 20:48:00,52.2,45.2,30.18,WSW,248,0.0,0.0,77,0.00,CLR,,0.00,0.0,WeatherDisplay:10.37,2013-02-27 04:48:00,
2013-02-26 20:53:00,52.0,45.0,30.18,WSW,248,0.0,0.0,77,0.00,CLR,,0.00,0.0,WeatherDisplay:10.37,2013-02-27 04:53:00,
2013-02-26 20:58:00,51.8,44.8,30.18,WSW,248,0.0,0.0,77,0.00,CLR,,0.00,0.0,WeatherDisplay:10.37,2013-02-27 04:58:00,
2013-02-26 21:00:00,51.8,44.8,30.18,WSW,248,0.0,0.0,77,0.00,CLR,,0.00,0.0,WeatherDisplay:10.37,2013-02-27 05:00:00,
2013-02-26 21:01:00,51.6,44.6,30.18,WSW,248,0.0,0.0,77,0.00,CLR,,0.00,0.0,WeatherDisplay:10.37,2013-02-27 05:01:00,
2013-02-26 21:07:00,51.6,44.6,30.18,WSW,248,0.0,0.0,77,0.00,CLR,,0.00,0.0,WeatherDisplay:10.37,2013-02-27 05:07:00,
2013-02-26 21:12:00,51.3,44.3,30.18,WSW,248,0.0,0.0,77,0.00,CLR,,0.00,0.0,WeatherDisplay:10.37,2013-02-27 05:12:00,
2013-02-26 21:17:00,51.1,44.1,30.18,WSW,248,0.0,0.0,77,0.00,CLR,,0.00,0.0,WeatherDisplay:10.37,2013-02-27 05:17:00,
2013-02-26 21:22:00,50.7,43.8,30.18,WSW,248,0.0,0.0,77,0.00,CLR,,0.00,0.0,WeatherDisplay:10.37,2013-02-27 05:22:00,
2013-02-26 21:28:00,50.7,43.8,30.18,WSW,248,0.0,0.0,77,0.00,CLR,,0.00,0.0,WeatherDisplay:10.37,2013-02-27 05:28:00,
2013-02-26 21:33:00,50.5,43.3,30.18,WSW,248,0.0,0.0,76,0.00,CLR,,0.00,0.0,WeatherDisplay:10.37,2013-02-27 05:33:00,
2013-02-26 21:38:00,50.2,42.9,30.18,WSW,248,0.0,0.0,76,0.00,CLR,,0.00,0.0,WeatherDisplay:10.37,2013-02-27 05:38:00,
2013-02-26 21:43:00,50.2,42.9,30.18,WSW,248,0.0,0.0,76,0.00,CLR,,0.00,0.0,WeatherDisplay:10.37,2013-02-27 05:43:00,
2013-02-26 21:48:00,49.8,42.6,30.19,WSW,248,0.0,0.0,76,0.00,CLR,,0.00,0.0,WeatherDisplay:10.37,2013-02-27 05:48:00,
2013-02-26 21:54:00,49.5,42.5,30.19,WSW,248,0.0,0.0,77,0.00,CLR,,0.00,0.0,WeatherDisplay:10.37,2013-02-27 05:54:00,
2013-02-26 21:59:00,49.3,42.4,30.19,WSW,248,0.0,0.0,77,0.00,CLR,,0.00,0.0,WeatherDisplay:10.37,2013-02-27 05:59:00,
2013-02-26 22:04:00,49.1,41.9,30.19,WSW,248,0.0,0.0,76,0.00,CLR,,0.00,0.0,WeatherDisplay:10.37,2013-02-27 06:04:00,
2013-02-26 22:09:00,48.9,41.7,30.19,WSW,248,0.0,0.0,76,0.00,CLR,,0.00,0.0,WeatherDisplay:10.37,2013-02-27 06:09:00,
2013-02-26 22:14:00,48.6,41.3,30.19,WSW,248,0.0,0.0,76,0.00,CLR,,0.00,0.0,WeatherDisplay:10.37,2013-02-27 06:14:00,
2013-02-26 22:20:00,48.4,41.2,30.19,WSW,248,0.0,0.0,76,0.00,CLR,,0.00,0.0,WeatherDisplay:10.37,2013-02-27 06:20:00,
2013-02-26 22:25:00,48.2,41.0,30.19,WSW,248,0.0,0.0,76,0.00,CLR,,0.00,0.0,WeatherDisplay:10.37,2013-02-27 06:25:00,
2013-02-26 22:30:00,48.0,41.2,30.19,WSW,248,0.0,0.0,77,0.00,CLR,,0.00,0.0,WeatherDisplay:10.37,2013-02-27 06:30:00,
2013-02-26 22:35:00,47.8,41.0,30.19,WSW,248,0.0,0.0,77,0.00,CLR,,0.00,0.0,WeatherDisplay:10.37,2013-02-27 06:35:00,
2013-02-26 22:40:00,47.8,41.0,30.19,WSW,248,0.0,0.0,77,0.00,CLR,,0.00,0.0,WeatherDisplay:10.37,2013-02-27 06:40:00,
2013-02-26 22:45:00,47.5,40.3,30.19,WSW,248,0.0,0.0,76,0.00,CLR,,0.00,0.0,WeatherDisplay:10.37,2013-02-27 06:45:00,
2013-02-26 22:50:00,47.7,40.5,30.19,WSW,248,0.0,0.0,76,0.00,CLR,,0.00,0.0,WeatherDisplay:10.37,2013-02-27 06:50:00,
2013-02-26 22:56:00,47.5,39.9,30.19,WSW,248,0.0,0.0,75,0.00,CLR,,0.00,0.0,WeatherDisplay:10.37,2013-02-27 06:56:00,
2013-02-26 23:01:00,47.3,39.4,30.19,WSW,248,0.0,0.0,74,0.00,CLR,,0.00,0.0,WeatherDisplay:10.37,2013-02-27 07:01:00,
2013-02-26 23:06:00,47.3,39.4,30.19,WSW,248,0.0,0.0,74,0.00,CLR,,0.00,0.0,WeatherDisplay:10.37,2013-02-27 07:06:00,
2013-02-26 23:11:00,47.1,39.3,30.21,WSW,248,0.0,0.0,74,0.00,CLR,,0.00,0.0,WeatherDisplay:10.37,2013-02-27 07:11:00,
2013-02-26 23:16:00,46.9,38.7,30.21,WSW,248,0.0,0.0,73,0.00,CLR,,0.00,0.0,WeatherDisplay:10.37,2013-02-27 07:16:00,
2013-02-26 23:21:00,46.9,38.7,30.21,WSW,248,0.0,0.0,73,0.00,CLR,,0.00,0.0,WeatherDisplay:10.37,2013-02-27 07:21:00,
2013-02-26 23:26:00,46.9,38.4,30.21,WSW,248,0.0,0.0,72,0.00,CLR,,0.00,0.0,WeatherDisplay:10.37,2013-02-27 07:26:00,
2013-02-26 23:31:00,46.8,38.2,30.21,WSW,248,0.0,0.0,72,0.00,CLR,,0.00,0.0,WeatherDisplay:10.37,2013-02-27 07:31:00,
2013-02-26 23:37:00,46.6,38.0,30.21,WSW,248,0.0,0.0,72,0.00,CLR,,0.00,0.0,WeatherDisplay:10.37,2013-02-27 07:37:00,
2013-02-26 23:42:00,46.4,37.9,30.21,WSW,248,0.0,0.0,72,0.00,CLR,,0.00,0.0,WeatherDisplay:10.37,2013-02-27 07:42:00,
2013-02-26 23:47:00,46.2,37.7,30.21,WSW,248,0.0,0.0,72,0.00,CLR,,0.00,0.0,WeatherDisplay:10.37,2013-02-27 07:47:00,
2013-02-26 23:52:00,45.9,37.3,30.21,WSW,248,0.0,0.0,72,0.00,CLR,,0.00,0.0,WeatherDisplay:10.37,2013-02-27 07:52:00,
2013-02-26 23:57:00,45.7,37.2,30.21,WSW,248,0.0,0.0,72,0.00,CLR,,0.00,0.0,WeatherDisplay:10.37,2013-02-27 07:57:00,